createdAt,value
2024-02-28T00:00:25.272Z,12.73
2024-02-28T00:02:51.575Z,13.50
2024-02-28T00:05:17.920Z,13.27
2024-02-28T00:07:44.951Z,13.32
2024-02-28T00:10:11.359Z,13.73
2024-02-28T00:12:37.726Z,13.60
2024-02-28T00:15:06.265Z,14.73
2024-02-28T00:17:32.602Z,14.05
2024-02-28T00:19:59.068Z,12.82
2024-02-28T00:22:25.781Z,13.65
2024-02-28T00:24:52.290Z,13.55
2024-02-28T00:27:18.872Z,13.90
2024-02-28T00:29:45.198Z,13.00
2024-02-28T00:32:11.567Z,13.60
2024-02-28T00:34:37.919Z,13.38
2024-02-28T00:37:07.338Z,13.20
2024-02-28T00:39:33.638Z,14.77
2024-02-28T00:42:00.285Z,13.32
2024-02-28T00:44:26.824Z,13.80
2024-02-28T00:46:53.284Z,13.30
2024-02-28T00:49:19.854Z,13.75
2024-02-28T00:51:47.215Z,13.77
2024-02-28T00:54:13.716Z,13.95
2024-02-28T00:56:40.113Z,12.73
2024-02-28T00:59:07.694Z,12.10
2024-02-28T01:01:34.132Z,11.07
2024-02-28T01:04:00.566Z,11.57
2024-02-28T01:06:26.934Z,11.45
2024-02-28T01:08:53.268Z,11.27
2024-02-28T01:11:19.646Z,10.50
2024-02-28T01:13:46.106Z,11.43
2024-02-28T01:16:12.490Z,10.30
2024-02-28T01:18:38.955Z,10.48
2024-02-28T01:21:05.383Z,11.32
2024-02-28T01:23:32.415Z,11.43
2024-02-28T01:25:58.803Z,10.55
2024-02-28T01:28:25.177Z,11.63
2024-02-28T01:30:51.763Z,10.63
2024-02-28T01:33:18.286Z,10.38
2024-02-28T01:35:44.736Z,10.25
2024-02-28T01:38:11.109Z,10.35
2024-02-28T01:40:37.487Z,11.02
2024-02-28T01:43:10.122Z,10.07
2024-02-28T01:45:36.637Z,10.02
2024-02-28T01:48:05.896Z,9.77
2024-02-28T01:50:32.892Z,10.43
2024-02-28T01:52:59.637Z,9.75
2024-02-28T01:55:29.696Z,9.65
2024-02-28T01:57:56.614Z,10.60
2024-02-28T02:00:23.966Z,10.75
2024-02-28T02:02:50.286Z,9.55
2024-02-28T02:05:17.280Z,11.32
2024-02-28T02:07:44.033Z,10.23
2024-02-28T02:10:13.419Z,13.52
2024-02-28T02:12:39.961Z,10.40
2024-02-28T02:15:06.499Z,11.35
2024-02-28T02:17:33.011Z,10.00
2024-02-28T02:19:59.479Z,12.18
2024-02-28T02:22:28.418Z,12.27
2024-02-28T02:24:54.870Z,11.30
2024-02-28T02:27:21.400Z,11.13
2024-02-28T02:29:47.786Z,12.95
2024-02-28T02:32:14.086Z,11.52
2024-02-28T02:34:40.388Z,12.20
2024-02-28T02:37:09.765Z,11.43
2024-02-28T02:39:36.183Z,11.02
2024-02-28T02:42:02.554Z,11.13
2024-02-28T02:44:29.040Z,10.70
2024-02-28T02:46:55.487Z,12.07
2024-02-28T02:49:22.235Z,11.68
2024-02-28T02:51:48.834Z,11.20
2024-02-28T02:54:15.272Z,11.77
2024-02-28T02:56:44.911Z,13.95
2024-02-28T02:59:12.361Z,11.88
2024-02-28T03:01:39.199Z,11.20
2024-02-28T03:04:05.600Z,11.15
2024-02-28T03:06:35.344Z,12.05
2024-02-28T03:09:01.915Z,10.90
2024-02-28T03:11:28.443Z,11.75
2024-02-28T03:13:55.071Z,12.45
2024-02-28T03:16:21.493Z,13.20
2024-02-28T03:18:47.854Z,11.05
2024-02-28T03:21:14.638Z,10.95
2024-02-28T03:23:41.043Z,11.05
2024-02-28T03:26:07.339Z,11.35
2024-02-28T03:28:33.803Z,9.68
2024-02-28T03:31:00.211Z,10.38
2024-02-28T03:33:26.576Z,11.02
2024-02-28T03:35:52.930Z,11.65
2024-02-28T03:38:19.318Z,10.85
2024-02-28T03:40:45.631Z,10.98
2024-02-28T03:43:13.925Z,11.07
2024-02-28T03:45:40.738Z,10.13
2024-02-28T03:48:07.512Z,10.73
2024-02-28T03:50:33.971Z,9.95
2024-02-28T03:53:00.304Z,9.80
2024-02-28T03:55:26.683Z,9.75
2024-02-28T03:57:53.542Z,10.02
2024-02-28T04:00:20.245Z,10.35
2024-02-28T04:02:46.681Z,10.65
2024-02-28T04:05:13.114Z,10.35
2024-02-28T04:07:39.504Z,10.82
2024-02-28T04:10:06.474Z,10.32
2024-02-28T04:12:33.031Z,9.63
2024-02-28T04:14:59.592Z,10.55
2024-02-28T04:17:26.172Z,10.07
2024-02-28T04:19:52.748Z,11.52
2024-02-28T04:22:19.121Z,10.52
2024-02-28T04:24:45.495Z,11.75
2024-02-28T04:27:12.797Z,10.82
2024-02-28T04:29:39.491Z,10.07
2024-02-28T04:32:05.966Z,10.95
2024-02-28T04:34:32.362Z,11.05
2024-02-28T04:36:58.723Z,11.82
2024-02-28T04:39:25.171Z,11.30
2024-02-28T04:41:51.625Z,11.77
2024-02-28T04:44:17.951Z,10.70
2024-02-28T04:46:44.454Z,11.18
2024-02-28T04:49:10.950Z,10.25
2024-02-28T04:51:37.397Z,12.45
2024-02-28T04:54:03.874Z,10.00
2024-02-28T04:56:30.270Z,11.63
2024-02-28T04:58:56.668Z,11.18
2024-02-28T05:01:23.827Z,12.77
2024-02-28T05:03:50.410Z,11.52
2024-02-28T05:06:17.438Z,10.85
2024-02-28T05:08:43.942Z,12.10
2024-02-28T05:11:10.432Z,11.65
2024-02-28T05:13:36.951Z,11.45
2024-02-28T05:16:03.793Z,11.25
2024-02-28T05:18:30.354Z,12.43
2024-02-28T05:20:56.735Z,11.55
2024-02-28T05:23:24.292Z,10.85
2024-02-28T05:25:50.793Z,11.48
2024-02-28T05:28:17.194Z,11.10
2024-02-28T05:30:46.915Z,10.80
2024-02-28T05:33:15.249Z,11.40
2024-02-28T05:35:42.009Z,11.55
2024-02-28T05:38:08.370Z,11.90
2024-02-28T05:40:35.191Z,12.20
2024-02-28T05:43:03.814Z,11.15
2024-02-28T05:45:30.323Z,11.02
2024-02-28T05:47:56.708Z,11.18
2024-02-28T05:50:23.091Z,11.45
2024-02-28T05:52:49.672Z,11.77
2024-02-28T05:55:16.088Z,12.07
2024-02-28T05:57:42.889Z,11.40
2024-02-28T06:00:11.348Z,13.57
2024-02-28T06:02:38.387Z,10.98
2024-02-28T06:05:05.205Z,10.07
2024-02-28T06:07:31.849Z,12.32
2024-02-28T06:09:58.489Z,11.68
2024-02-28T06:12:25.338Z,12.63
2024-02-28T06:14:51.850Z,11.27
2024-02-28T06:17:18.301Z,11.85
2024-02-28T06:19:44.708Z,12.25
2024-02-28T06:22:11.079Z,12.23
2024-02-28T06:24:37.675Z,10.85
2024-02-28T06:27:13.233Z,11.27
2024-02-28T06:29:42.737Z,12.27
2024-02-28T06:32:09.287Z,11.35
2024-02-28T06:34:35.854Z,10.63
2024-02-28T06:37:02.596Z,9.85
2024-02-28T06:39:29.194Z,10.65
2024-02-28T06:41:55.675Z,11.38
2024-02-28T06:44:22.173Z,12.02
2024-02-28T06:46:48.968Z,12.15
2024-02-28T06:49:15.447Z,13.27
2024-02-28T06:51:41.916Z,11.30
2024-02-28T06:54:08.409Z,13.15
2024-02-28T06:56:34.877Z,11.88
2024-02-28T06:59:01.591Z,13.15
2024-02-28T07:01:28.172Z,13.02
2024-02-28T07:03:54.803Z,12.55
2024-02-28T07:06:21.320Z,13.55
2024-02-28T07:08:47.777Z,14.45
2024-02-28T07:11:14.735Z,14.70
2024-02-28T07:13:41.425Z,15.93
2024-02-28T07:16:07.922Z,14.20
2024-02-28T07:18:34.660Z,15.27
2024-02-28T07:21:01.656Z,17.08
2024-02-28T07:23:28.142Z,12.60
2024-02-28T07:25:54.532Z,14.25
2024-02-28T07:28:21.008Z,13.60
2024-02-28T07:30:49.315Z,14.45
2024-02-28T07:33:16.052Z,15.90
2024-02-28T07:35:53.243Z,15.77
2024-02-28T07:38:22.026Z,15.40
2024-02-28T07:40:51.523Z,14.77
2024-02-28T07:43:17.975Z,16.02
2024-02-28T07:45:44.609Z,16.85
2024-02-28T07:48:11.103Z,17.30
2024-02-28T07:50:39.147Z,15.95
2024-02-28T07:53:05.560Z,14.88
2024-02-28T07:55:31.955Z,17.33
2024-02-28T07:57:58.416Z,17.02
2024-02-28T08:00:26.433Z,16.38
2024-02-28T08:02:52.844Z,17.08
2024-02-28T08:05:19.361Z,19.00
2024-02-28T08:07:45.798Z,15.27
2024-02-28T08:10:12.910Z,17.38
2024-02-28T08:12:39.298Z,14.23
2024-02-28T08:15:06.555Z,16.48
2024-02-28T08:17:32.990Z,17.23
2024-02-28T08:19:59.484Z,18.42
2024-02-28T08:22:26.396Z,19.80
2024-02-28T08:24:53.225Z,16.48
2024-02-28T08:27:20.126Z,17.63
2024-02-28T08:29:47.076Z,15.48
2024-02-28T08:32:14.223Z,16.42
2024-02-28T08:34:44.379Z,16.52
2024-02-28T08:37:10.831Z,18.00
2024-02-28T08:39:37.208Z,17.92
2024-02-28T08:42:03.800Z,18.10
2024-02-28T08:44:30.163Z,21.45
2024-02-28T08:46:56.547Z,20.80
2024-02-28T08:49:22.941Z,20.38
2024-02-28T08:51:50.379Z,21.23
2024-02-28T08:54:17.020Z,19.27
2024-02-28T08:56:50.117Z,22.10
2024-02-28T08:59:23.183Z,21.02
2024-02-28T09:01:49.972Z,20.95
2024-02-28T09:04:18.828Z,21.55
2024-02-28T09:06:45.234Z,20.95
2024-02-28T09:09:11.645Z,24.85
2024-02-28T09:11:38.068Z,22.20
2024-02-28T09:14:04.887Z,24.13
2024-02-28T09:16:31.307Z,23.20
2024-02-28T09:18:57.766Z,24.88
2024-02-28T09:21:24.262Z,23.85
2024-02-28T09:23:50.636Z,22.92
2024-02-28T09:26:17.033Z,24.25
2024-02-28T09:28:43.419Z,22.80
2024-02-28T09:31:10.197Z,24.85
2024-02-28T09:33:37.710Z,22.40
2024-02-28T09:36:04.774Z,22.58
2024-02-28T09:38:33.500Z,22.88
2024-02-28T09:41:00.177Z,23.08
2024-02-28T09:43:29.924Z,22.83
2024-02-28T09:45:59.168Z,23.88
2024-02-28T09:48:29.036Z,24.60
2024-02-28T09:50:56.858Z,24.77
2024-02-28T09:53:23.294Z,24.42
2024-02-28T09:55:50.976Z,25.77
2024-02-28T09:58:18.850Z,25.73
2024-02-28T10:00:46.150Z,26.02
2024-02-28T10:03:19.704Z,27.33
2024-02-28T10:05:47.261Z,28.95
2024-02-28T10:08:15.196Z,26.58
2024-02-28T10:10:48.657Z,29.02
2024-02-28T10:13:18.546Z,27.60
2024-02-28T10:15:45.517Z,26.17
2024-02-28T10:18:12.089Z,35.13
2024-02-28T10:20:39.519Z,28.60
2024-02-28T10:23:06.859Z,24.75
2024-02-28T10:25:39.128Z,26.85
2024-02-28T10:28:08.261Z,28.35
2024-02-28T10:30:39.408Z,24.70
2024-02-28T10:33:05.813Z,26.10
2024-02-28T10:35:32.661Z,22.50
2024-02-28T10:37:59.897Z,23.88
2024-02-28T10:40:26.499Z,19.98
2024-02-28T10:42:52.931Z,21.25
2024-02-28T10:45:29.956Z,24.10
2024-02-28T10:48:07.060Z,20.85
2024-02-28T10:50:33.648Z,20.02
2024-02-28T10:53:04.023Z,19.60
2024-02-28T10:55:40.633Z,22.17
2024-02-28T10:58:08.759Z,22.52
2024-02-28T11:00:36.281Z,23.70
2024-02-28T11:03:04.664Z,22.83
2024-02-28T11:05:39.971Z,21.15
2024-02-28T11:08:09.223Z,20.63
2024-02-28T11:10:35.711Z,21.38
2024-02-28T11:13:02.344Z,19.73
2024-02-28T11:15:28.954Z,20.08
2024-02-28T11:17:55.705Z,20.17
2024-02-28T11:20:23.744Z,20.35
2024-02-28T11:22:57.638Z,20.00
2024-02-28T11:25:24.280Z,21.35
2024-02-28T11:27:51.221Z,21.50
2024-02-28T11:30:18.344Z,21.70
2024-02-28T11:32:45.348Z,19.48
2024-02-28T11:35:13.247Z,18.17
2024-02-28T11:37:40.303Z,19.48
2024-02-28T11:40:11.076Z,19.15
2024-02-28T11:42:38.831Z,20.38
2024-02-28T11:45:06.484Z,19.40
2024-02-28T11:47:34.133Z,19.65
2024-02-28T11:50:02.614Z,18.42
2024-02-28T11:52:31.270Z,21.55
2024-02-28T11:54:57.880Z,17.95
2024-02-28T11:57:24.415Z,19.70
2024-02-28T11:59:52.163Z,21.02
2024-02-28T12:02:18.691Z,21.50
2024-02-28T12:04:46.061Z,18.45
2024-02-28T12:07:13.017Z,18.33
2024-02-28T12:09:43.161Z,18.20
2024-02-28T12:12:09.879Z,19.30
2024-02-28T12:14:44.887Z,19.95
2024-02-28T12:17:11.357Z,16.48
2024-02-28T12:19:37.713Z,16.75
2024-02-28T12:22:14.035Z,17.17
2024-02-28T12:24:40.709Z,17.48
2024-02-28T12:27:07.196Z,17.35
2024-02-28T12:29:33.649Z,16.95
2024-02-28T12:32:00.096Z,15.50
2024-02-28T12:34:28.418Z,17.40
2024-02-28T12:36:55.222Z,16.60
2024-02-28T12:39:21.682Z,16.13
2024-02-28T12:41:48.337Z,13.98
2024-02-28T12:44:14.739Z,13.75
2024-02-28T12:46:41.395Z,14.07
2024-02-28T12:49:07.842Z,12.32
2024-02-28T12:51:38.640Z,14.18
2024-02-28T12:54:05.236Z,13.95
2024-02-28T12:56:31.643Z,13.93
2024-02-28T12:58:58.032Z,12.57
2024-02-28T13:01:24.517Z,12.55
2024-02-28T13:03:51.344Z,13.50
2024-02-28T13:06:17.687Z,11.73
2024-02-28T13:08:44.957Z,12.80
2024-02-28T13:11:11.399Z,13.48
2024-02-28T13:13:37.804Z,11.95
2024-02-28T13:16:04.995Z,12.57
2024-02-28T13:18:31.554Z,17.42
2024-02-28T13:20:57.913Z,12.02
2024-02-28T13:23:24.528Z,12.73
2024-02-28T13:25:51.016Z,10.95
2024-02-28T13:28:17.380Z,11.57
2024-02-28T13:30:43.905Z,10.82
2024-02-28T13:33:10.300Z,10.68
2024-02-28T13:35:38.949Z,10.93
2024-02-28T13:38:05.889Z,8.93
2024-02-28T13:40:32.200Z,8.98
2024-02-28T13:42:58.819Z,10.57
2024-02-28T13:45:25.188Z,8.27
2024-02-28T13:47:51.601Z,9.15
2024-02-28T13:50:17.983Z,9.32
2024-02-28T13:52:44.423Z,9.63
2024-02-28T13:55:11.148Z,10.60
2024-02-28T13:57:37.607Z,11.18
2024-02-28T14:00:07.723Z,9.00
2024-02-28T14:02:34.511Z,9.02
2024-02-28T14:05:01.777Z,10.68
2024-02-28T14:07:28.099Z,10.40
2024-02-28T14:09:54.494Z,9.25
2024-02-28T14:12:21.009Z,8.25
2024-02-28T14:14:47.405Z,9.13
2024-02-28T14:17:13.787Z,8.75
2024-02-28T14:19:40.203Z,7.90
2024-02-28T14:22:07.676Z,7.88
2024-02-28T14:24:34.151Z,9.18
2024-02-28T14:27:00.533Z,7.43
2024-02-28T14:29:27.493Z,6.70
2024-02-28T14:31:53.896Z,8.63
2024-02-28T14:34:20.230Z,6.78
2024-02-28T14:36:46.643Z,7.00
2024-02-28T14:39:16.615Z,7.70
2024-02-28T14:41:44.879Z,6.45
2024-02-28T14:44:11.933Z,7.20
2024-02-28T14:46:38.278Z,5.85
2024-02-28T14:49:07.807Z,6.63
2024-02-28T14:51:34.530Z,5.75
2024-02-28T14:54:01.097Z,5.75
2024-02-28T14:56:29.065Z,4.50
2024-02-28T14:58:56.407Z,4.32
2024-02-28T15:01:23.510Z,3.70
2024-02-28T15:03:50.323Z,5.40
2024-02-28T15:06:16.934Z,3.90
2024-02-28T15:08:43.902Z,4.00
2024-02-28T15:11:10.477Z,3.97
2024-02-28T15:13:37.142Z,3.25
2024-02-28T15:16:06.122Z,3.08
2024-02-28T15:18:32.582Z,4.05
2024-02-28T15:21:01.417Z,3.15
2024-02-28T15:23:31.822Z,3.03
2024-02-28T15:25:59.020Z,4.40
2024-02-28T15:28:28.065Z,3.65
2024-02-28T15:30:54.926Z,3.33
2024-02-28T15:33:21.451Z,2.58
2024-02-28T15:35:47.883Z,2.65
2024-02-28T15:38:14.336Z,2.17
2024-02-28T15:40:41.850Z,3.00
2024-02-28T15:43:08.770Z,2.08
2024-02-28T15:45:35.263Z,2.75
2024-02-28T15:48:02.578Z,3.05
2024-02-28T15:50:29.113Z,2.30
2024-02-28T15:52:55.509Z,2.65
2024-02-28T15:55:23.070Z,2.10
2024-02-28T15:57:49.453Z,2.00
2024-02-28T16:00:16.243Z,1.95
2024-02-28T16:02:42.743Z,3.85
2024-02-28T16:05:09.099Z,2.75
2024-02-28T16:07:35.545Z,2.53
2024-02-28T16:10:02.308Z,2.75
2024-02-28T16:12:28.884Z,2.25
2024-02-28T16:14:55.420Z,2.28
2024-02-28T16:17:22.305Z,2.58
2024-02-28T16:19:48.739Z,2.40
2024-02-28T16:22:15.249Z,2.40
2024-02-28T16:24:41.715Z,1.83
2024-02-28T16:27:08.221Z,3.33
2024-02-28T16:29:34.580Z,2.67
2024-02-28T16:32:00.939Z,2.22
2024-02-28T16:34:27.670Z,3.13
2024-02-28T16:36:54.105Z,2.20
2024-02-28T16:39:22.212Z,2.30
2024-02-28T16:41:48.796Z,3.00
2024-02-28T16:44:15.358Z,3.28
2024-02-28T16:46:41.708Z,4.72
2024-02-28T16:49:08.177Z,2.67
2024-02-28T16:51:35.202Z,4.65
2024-02-28T16:54:01.806Z,4.20
2024-02-28T16:56:28.290Z,5.22
2024-02-28T16:58:55.390Z,4.82
2024-02-28T17:01:25.478Z,5.05
2024-02-28T17:03:52.246Z,4.55
2024-02-28T17:06:18.704Z,5.55
2024-02-28T17:08:45.295Z,5.65
2024-02-28T17:11:13.025Z,4.93
2024-02-28T17:13:39.722Z,4.25
2024-02-28T17:16:06.171Z,6.18
2024-02-28T17:18:33.737Z,6.88
2024-02-28T17:21:02.099Z,5.63
2024-02-28T17:23:28.707Z,8.20
2024-02-28T17:25:55.151Z,6.85
2024-02-28T17:28:21.566Z,5.43
2024-02-28T17:30:48.362Z,7.00
2024-02-28T17:33:14.808Z,7.47
2024-02-28T17:35:42.779Z,7.57
2024-02-28T17:38:09.246Z,5.38
2024-02-28T17:40:35.601Z,5.97
2024-02-28T17:43:02.189Z,5.10
2024-02-28T17:45:28.603Z,7.75
2024-02-28T17:47:54.957Z,11.02
2024-02-28T17:50:21.509Z,6.97
2024-02-28T17:52:48.540Z,10.15
2024-02-28T17:55:16.010Z,8.45
2024-02-28T17:57:42.424Z,5.90
2024-02-28T18:00:13.543Z,8.00
2024-02-28T18:02:40.344Z,6.13
2024-02-28T18:05:06.930Z,7.30
2024-02-28T18:07:33.274Z,8.88
2024-02-28T18:09:59.651Z,9.00
2024-02-28T18:12:26.598Z,6.72
2024-02-28T18:14:57.328Z,6.28
2024-02-28T18:17:23.683Z,7.63
2024-02-28T18:19:50.074Z,7.28
2024-02-28T18:22:16.717Z,7.07
2024-02-28T18:24:43.197Z,6.75
2024-02-28T18:27:12.872Z,6.95
2024-02-28T18:29:39.387Z,8.77
2024-02-28T18:32:05.963Z,9.23
2024-02-28T18:34:32.463Z,8.05
2024-02-28T18:36:58.862Z,5.97
2024-02-28T18:39:28.826Z,6.45
2024-02-28T18:41:55.195Z,6.95
2024-02-28T18:44:21.652Z,8.02
2024-02-28T18:46:48.115Z,8.57
2024-02-28T18:49:14.964Z,7.18
2024-02-28T18:51:42.269Z,5.95
2024-02-28T18:54:09.178Z,6.72
2024-02-28T18:56:35.631Z,5.95
2024-02-28T18:59:02.008Z,7.03
2024-02-28T19:01:28.515Z,10.95
2024-02-28T19:03:56.687Z,6.47
2024-02-28T19:06:24.501Z,7.43
2024-02-28T19:08:51.162Z,6.88
2024-02-28T19:11:17.823Z,7.10
2024-02-28T19:13:44.091Z,6.10
2024-02-28T19:16:10.441Z,6.45
2024-02-28T19:18:41.001Z,6.78
2024-02-28T19:21:08.600Z,8.35
2024-02-28T19:23:35.212Z,6.63
2024-02-28T19:26:01.586Z,6.85
2024-02-28T19:28:29.041Z,9.15
2024-02-28T19:30:56.701Z,7.63
2024-02-28T19:33:24.915Z,6.88
2024-02-28T19:35:52.885Z,7.95
2024-02-28T19:38:20.672Z,8.02
2024-02-28T19:40:47.122Z,7.57
2024-02-28T19:43:13.656Z,7.55
2024-02-28T19:45:40.718Z,7.90
2024-02-28T19:48:07.620Z,8.20
2024-02-28T19:50:34.020Z,7.55
2024-02-28T19:53:00.671Z,7.13
2024-02-28T19:55:27.043Z,7.63
2024-02-28T19:57:53.456Z,8.23
2024-02-28T20:00:19.982Z,8.48
2024-02-28T20:02:46.306Z,7.75
2024-02-28T20:05:12.714Z,8.38
2024-02-28T20:07:39.267Z,8.23
2024-02-28T20:10:06.637Z,7.72
2024-02-28T20:12:33.063Z,7.03
2024-02-28T20:15:00.455Z,5.35
2024-02-28T20:17:26.917Z,7.00
2024-02-28T20:19:53.357Z,6.85
2024-02-28T20:22:20.691Z,4.95
2024-02-28T20:24:47.209Z,6.45
2024-02-28T20:27:13.633Z,6.47
2024-02-28T20:29:40.316Z,5.43
2024-02-28T20:32:07.416Z,7.22
2024-02-28T20:34:35.976Z,6.68
2024-02-28T20:37:06.272Z,6.10
2024-02-28T20:39:32.771Z,6.38
2024-02-28T20:41:59.164Z,5.93
2024-02-28T20:44:27.733Z,6.95
2024-02-28T20:46:54.092Z,6.57
2024-02-28T20:49:20.415Z,6.05
2024-02-28T20:51:46.806Z,6.05
2024-02-28T20:54:13.154Z,7.57
2024-02-28T20:56:40.230Z,6.18
2024-02-28T20:59:06.801Z,6.13
2024-02-28T21:01:33.285Z,6.38
2024-02-28T21:04:00.381Z,6.00
2024-02-28T21:06:27.953Z,7.10
2024-02-28T21:08:56.522Z,6.25
2024-02-28T21:11:25.925Z,7.97
2024-02-28T21:13:54.817Z,6.22
2024-02-28T21:16:22.127Z,5.35
2024-02-28T21:18:51.801Z,4.85
2024-02-28T21:21:19.076Z,7.55
2024-02-28T21:23:45.405Z,7.47
2024-02-28T21:26:11.818Z,5.47
2024-02-28T21:28:38.206Z,5.47
2024-02-28T21:31:07.866Z,6.75
2024-02-28T21:33:34.737Z,4.60
2024-02-28T21:36:01.507Z,4.45
2024-02-28T21:38:27.874Z,4.43
2024-02-28T21:40:54.241Z,5.47
2024-02-28T21:43:20.610Z,4.65
2024-02-28T21:45:47.081Z,4.22
2024-02-28T21:48:15.502Z,5.50
2024-02-28T21:50:43.754Z,5.63
2024-02-28T21:53:10.364Z,6.43
2024-02-28T21:55:37.202Z,5.68
2024-02-28T21:58:06.059Z,6.35
2024-02-28T22:00:32.568Z,5.90
2024-02-28T22:02:58.997Z,5.68
2024-02-28T22:05:25.387Z,4.47
2024-02-28T22:07:51.969Z,5.38
2024-02-28T22:10:18.432Z,4.70
2024-02-28T22:12:45.167Z,4.90
2024-02-28T22:15:11.828Z,6.90
2024-02-28T22:17:38.240Z,5.80
2024-02-28T22:20:07.752Z,6.05
2024-02-28T22:22:34.162Z,5.85
2024-02-28T22:25:00.605Z,5.05
2024-02-28T22:27:27.086Z,4.60
2024-02-28T22:29:54.003Z,4.88
2024-02-28T22:32:21.219Z,4.63
2024-02-28T22:34:47.567Z,5.13
2024-02-28T22:37:14.284Z,5.97
2024-02-28T22:39:40.688Z,5.40
2024-02-28T22:42:07.086Z,5.10
2024-02-28T22:44:33.437Z,4.55
2024-02-28T22:46:59.860Z,4.70
2024-02-28T22:49:26.404Z,5.13
2024-02-28T22:51:52.992Z,6.20
2024-02-28T22:54:19.569Z,5.13
2024-02-28T22:56:46.729Z,5.70
2024-02-28T22:59:13.154Z,4.50
2024-02-28T23:01:40.923Z,5.63
2024-02-28T23:04:07.685Z,6.30
2024-02-28T23:06:34.111Z,4.60
2024-02-28T23:09:00.881Z,5.47
2024-02-28T23:11:27.897Z,6.28
2024-02-28T23:13:54.269Z,5.85
2024-02-28T23:16:20.593Z,6.43
2024-02-28T23:18:47.047Z,5.65
2024-02-28T23:21:13.380Z,6.10
2024-02-28T23:23:39.741Z,6.18
2024-02-28T23:26:06.021Z,5.22
2024-02-28T23:28:32.348Z,5.38
2024-02-28T23:30:58.783Z,4.82
2024-02-28T23:33:25.204Z,5.55
2024-02-28T23:35:51.647Z,4.97
2024-02-28T23:38:18.228Z,4.28
2024-02-28T23:40:45.245Z,4.97
2024-02-28T23:43:11.643Z,4.47
2024-02-28T23:45:38.119Z,5.68
2024-02-28T23:48:07.250Z,5.43
2024-02-28T23:50:33.661Z,4.85
2024-02-28T23:53:00.225Z,5.78
2024-02-28T23:55:26.580Z,4.18
2024-02-28T23:57:53.144Z,6.60
